createdAt,value
2023-02-22T00:01:35.371Z,3.60
2023-02-22T00:04:04.615Z,3.40
2023-02-22T00:06:31.379Z,3.35
2023-02-22T00:08:58.895Z,3.53
2023-02-22T00:11:25.961Z,3.92
2023-02-22T00:13:57.017Z,3.75
2023-02-22T00:16:24.963Z,4.07
2023-02-22T00:18:52.357Z,4.43
2023-02-22T00:21:19.621Z,3.65
2023-02-22T00:23:47.925Z,3.80
2023-02-22T00:26:20.276Z,3.60
2023-02-22T00:28:49.391Z,3.85
2023-02-22T00:31:16.671Z,4.28
2023-02-22T00:33:43.701Z,3.75
2023-02-22T00:36:12.510Z,4.05
2023-02-22T00:38:40.178Z,3.78
2023-02-22T00:41:07.291Z,3.67
2023-02-22T00:43:34.308Z,3.88
2023-02-22T00:46:01.094Z,4.10
2023-02-22T00:48:28.469Z,4.70
2023-02-22T00:50:58.049Z,7.13
2023-02-22T00:53:26.143Z,7.00
2023-02-22T00:55:53.871Z,6.80
2023-02-22T00:58:21.703Z,7.25
2023-02-22T01:00:49.530Z,6.80
2023-02-22T01:03:20.620Z,5.82
2023-02-22T01:05:47.799Z,5.07
2023-02-22T01:08:16.680Z,5.05
2023-02-22T01:10:43.954Z,5.10
2023-02-22T01:13:12.828Z,4.80
2023-02-22T01:15:43.178Z,4.43
2023-02-22T01:18:12.553Z,5.35
2023-02-22T01:20:39.507Z,4.78
2023-02-22T01:23:07.801Z,4.68
2023-02-22T01:25:35.682Z,4.15
2023-02-22T01:28:05.117Z,4.00
2023-02-22T01:30:34.902Z,3.83
2023-02-22T01:33:03.694Z,4.13
2023-02-22T01:35:34.140Z,3.17
2023-02-22T01:38:00.915Z,3.63
2023-02-22T01:40:29.670Z,3.50
2023-02-22T01:42:59.807Z,3.35
2023-02-22T01:45:35.244Z,2.97
2023-02-22T01:48:08.669Z,3.17
2023-02-22T01:50:42.506Z,3.05
2023-02-22T01:53:13.388Z,3.50
2023-02-22T01:55:40.517Z,3.15
2023-02-22T01:58:08.839Z,3.00
2023-02-22T02:00:36.231Z,3.28
2023-02-22T02:03:09.657Z,3.58
2023-02-22T02:05:37.357Z,3.47
2023-02-22T02:08:39.338Z,3.00
2023-02-22T02:11:09.158Z,3.07
2023-02-22T02:13:36.860Z,3.65
2023-02-22T02:16:04.114Z,3.95
2023-02-22T02:18:32.566Z,3.90
2023-02-22T02:21:38.422Z,3.80
2023-02-22T02:24:09.136Z,3.43
2023-02-22T02:26:51.085Z,3.55
2023-02-22T02:30:03.349Z,4.72
2023-02-22T02:32:39.467Z,4.80
2023-02-22T02:35:24.868Z,3.95
2023-02-22T02:37:54.334Z,4.47
2023-02-22T02:40:32.375Z,3.92
2023-02-22T02:43:01.769Z,4.30
2023-02-22T02:45:53.914Z,4.32
2023-02-22T02:48:26.791Z,3.80
2023-02-22T02:50:56.541Z,3.80
2023-02-22T02:53:29.851Z,4.10
2023-02-22T02:55:59.384Z,3.83
2023-02-22T02:58:26.604Z,3.92
2023-02-22T03:00:56.947Z,3.70
2023-02-22T03:03:37.948Z,3.78
2023-02-22T03:06:04.540Z,3.63
2023-02-22T03:08:38.389Z,4.20
2023-02-22T03:11:16.894Z,3.50
2023-02-22T03:13:46.604Z,3.95
2023-02-22T03:16:35.120Z,3.60
2023-02-22T03:19:15.617Z,3.38
2023-02-22T03:21:50.408Z,3.60
2023-02-22T03:24:20.888Z,3.67
2023-02-22T03:26:53.955Z,3.92
2023-02-22T03:29:23.843Z,3.53
2023-02-22T03:32:01.866Z,3.47
2023-02-22T03:34:42.512Z,3.53
2023-02-22T03:37:18.164Z,3.22
2023-02-22T03:39:46.754Z,3.17
2023-02-22T03:42:20.999Z,3.47
2023-02-22T03:44:49.889Z,3.38
2023-02-22T03:47:21.715Z,3.20
2023-02-22T03:49:57.474Z,3.83
2023-02-22T03:52:24.529Z,3.25
2023-02-22T03:54:53.739Z,3.90
2023-02-22T03:57:42.117Z,3.00
2023-02-22T04:00:10.945Z,3.15
2023-02-22T04:02:37.680Z,3.58
2023-02-22T04:05:04.525Z,3.08
2023-02-22T04:07:31.158Z,3.20
2023-02-22T04:09:57.760Z,2.90
2023-02-22T04:12:24.313Z,3.05
2023-02-22T04:14:51.017Z,2.92
2023-02-22T04:17:17.618Z,3.45
2023-02-22T04:19:45.694Z,2.83
2023-02-22T04:22:12.355Z,3.20
2023-02-22T04:24:38.932Z,2.90
2023-02-22T04:27:05.567Z,3.15
2023-02-22T04:29:32.137Z,2.78
2023-02-22T04:31:58.702Z,2.80
2023-02-22T04:34:25.374Z,2.60
2023-02-22T04:36:52.380Z,2.60
2023-02-22T04:39:19.173Z,2.70
2023-02-22T04:41:47.505Z,2.88
2023-02-22T04:44:14.448Z,2.27
2023-02-22T04:46:41.162Z,3.10
2023-02-22T04:49:07.850Z,2.95
2023-02-22T04:51:35.909Z,3.00
2023-02-22T04:54:02.664Z,2.83
2023-02-22T04:56:29.253Z,2.10
2023-02-22T04:58:55.846Z,2.67
2023-02-22T05:01:23.461Z,2.50
2023-02-22T05:03:50.665Z,2.65
2023-02-22T05:06:18.390Z,2.30
2023-02-22T05:08:45.035Z,2.63
2023-02-22T05:11:11.732Z,2.80
2023-02-22T05:13:38.447Z,2.80
2023-02-22T05:16:05.575Z,2.65
2023-02-22T05:18:32.236Z,2.78
2023-02-22T05:20:58.905Z,2.50
2023-02-22T05:23:25.797Z,2.42
2023-02-22T05:25:52.511Z,2.60
2023-02-22T05:28:19.252Z,2.90
2023-02-22T05:30:46.253Z,2.63
2023-02-22T05:33:13.132Z,2.47
2023-02-22T05:35:40.225Z,3.08
2023-02-22T05:38:07.490Z,3.28
2023-02-22T05:40:34.275Z,3.10
2023-02-22T05:43:02.159Z,3.08
2023-02-22T05:45:29.766Z,3.13
2023-02-22T05:47:56.466Z,3.00
2023-02-22T05:50:23.126Z,3.28
2023-02-22T05:52:50.583Z,2.95
2023-02-22T05:55:19.469Z,3.25
2023-02-22T05:57:46.757Z,3.33
2023-02-22T06:00:23.128Z,3.30
2023-02-22T06:03:02.204Z,3.63
2023-02-22T06:05:29.583Z,3.50
2023-02-22T06:07:57.319Z,3.22
2023-02-22T06:10:24.711Z,3.13
2023-02-22T06:12:52.395Z,3.35
2023-02-22T06:15:21.492Z,3.20
2023-02-22T06:17:48.715Z,3.05
2023-02-22T06:20:20.009Z,3.67
2023-02-22T06:22:51.340Z,2.92
2023-02-22T06:25:21.191Z,3.47
2023-02-22T06:27:47.963Z,3.90
2023-02-22T06:30:16.114Z,3.67
2023-02-22T06:32:42.792Z,4.20
2023-02-22T06:35:10.161Z,4.53
2023-02-22T06:37:36.716Z,4.93
2023-02-22T06:40:05.693Z,4.28
2023-02-22T06:42:32.740Z,4.05
2023-02-22T06:44:59.439Z,3.70
2023-02-22T06:47:26.164Z,3.30
2023-02-22T06:49:56.807Z,4.88
2023-02-22T06:52:23.882Z,4.75
2023-02-22T06:54:51.100Z,3.75
2023-02-22T06:57:18.578Z,4.10
2023-02-22T06:59:45.297Z,3.77
2023-02-22T07:02:13.062Z,3.10
2023-02-22T07:04:43.175Z,3.60
2023-02-22T07:07:10.200Z,3.40
2023-02-22T07:09:36.782Z,2.90
2023-02-22T07:12:03.528Z,2.45
2023-02-22T07:14:30.131Z,2.50
2023-02-22T07:16:56.706Z,3.00
2023-02-22T07:19:24.631Z,3.33
2023-02-22T07:21:55.319Z,2.50
2023-02-22T07:24:22.223Z,3.40
2023-02-22T07:26:48.814Z,3.88
2023-02-22T07:29:15.383Z,4.07
2023-02-22T07:31:42.040Z,5.88
2023-02-22T07:34:08.644Z,5.78
2023-02-22T07:36:35.212Z,7.50
2023-02-22T07:39:01.788Z,4.25
2023-02-22T07:41:28.445Z,4.47
2023-02-22T07:43:55.104Z,3.97
2023-02-22T07:46:21.770Z,4.10
2023-02-22T07:48:48.315Z,3.87
2023-02-22T07:51:17.024Z,3.30
2023-02-22T07:53:43.758Z,4.13
2023-02-22T07:56:10.364Z,3.55
2023-02-22T07:58:37.364Z,3.90
2023-02-22T08:01:04.558Z,3.25
2023-02-22T08:03:37.765Z,3.05
2023-02-22T08:06:06.533Z,3.38
2023-02-22T08:08:34.413Z,3.03
2023-02-22T08:11:01.568Z,3.00
2023-02-22T08:13:28.260Z,2.95
2023-02-22T08:15:55.038Z,3.15
2023-02-22T08:18:22.770Z,3.45
2023-02-22T08:20:51.898Z,3.30
2023-02-22T08:23:20.204Z,3.97
2023-02-22T08:25:46.927Z,4.00
2023-02-22T08:28:16.408Z,5.20
2023-02-22T08:30:43.745Z,4.20
2023-02-22T08:33:14.369Z,4.10
2023-02-22T08:35:41.573Z,3.88
2023-02-22T08:38:15.108Z,5.20
2023-02-22T08:40:41.690Z,4.68
2023-02-22T08:43:08.243Z,4.75
2023-02-22T08:45:34.928Z,4.60
2023-02-22T08:48:02.219Z,4.03
2023-02-22T08:50:33.547Z,4.35
2023-02-22T08:53:02.324Z,4.55
2023-02-22T08:55:32.272Z,4.47
2023-02-22T08:58:01.350Z,3.67
2023-02-22T09:00:30.675Z,4.22
2023-02-22T09:02:57.308Z,4.38
2023-02-22T09:05:23.931Z,4.57
2023-02-22T09:07:50.527Z,4.53
2023-02-22T09:10:20.345Z,5.68
2023-02-22T09:12:46.964Z,4.93
2023-02-22T09:15:14.676Z,4.60
2023-02-22T09:17:41.417Z,4.40
2023-02-22T09:20:08.898Z,4.28
2023-02-22T09:22:35.612Z,4.53
2023-02-22T09:25:11.373Z,4.32
2023-02-22T09:27:44.012Z,4.05
2023-02-22T09:30:23.887Z,4.57
2023-02-22T09:33:26.041Z,4.50
2023-02-22T09:35:52.700Z,4.40
2023-02-22T09:38:29.954Z,4.63
2023-02-22T09:41:13.898Z,4.55
2023-02-22T09:43:50.491Z,4.70
2023-02-22T09:46:27.148Z,5.28
2023-02-22T09:49:02.905Z,4.90
2023-02-22T09:51:58.733Z,5.13
2023-02-22T09:54:52.741Z,4.63
2023-02-22T09:57:26.900Z,4.28
2023-02-22T10:00:13.550Z,4.65
2023-02-22T10:02:49.256Z,4.22
2023-02-22T10:05:31.033Z,3.95
2023-02-22T10:08:05.878Z,3.40
2023-02-22T10:10:39.334Z,4.18
2023-02-22T10:13:25.080Z,3.63
2023-02-22T10:16:28.969Z,2.85
2023-02-22T10:19:27.828Z,3.42
2023-02-22T10:21:54.369Z,2.90
2023-02-22T10:24:29.304Z,3.17
2023-02-22T10:26:59.018Z,3.22
2023-02-22T10:29:44.831Z,3.28
2023-02-22T10:32:25.489Z,3.20
2023-02-22T10:34:54.701Z,2.83
2023-02-22T10:37:33.996Z,2.70
2023-02-22T10:40:20.386Z,2.80
2023-02-22T10:42:47.465Z,3.08
2023-02-22T10:45:35.892Z,3.00
2023-02-22T10:48:09.268Z,2.88
2023-02-22T10:50:40.730Z,4.28
2023-02-22T10:53:09.180Z,3.17
2023-02-22T10:55:37.638Z,2.65
2023-02-22T10:58:08.062Z,3.08
2023-02-22T11:00:39.627Z,2.63
2023-02-22T11:03:22.360Z,2.72
2023-02-22T11:05:49.886Z,3.00
2023-02-22T11:08:24.617Z,2.80
2023-02-22T11:10:57.435Z,2.80
2023-02-22T11:13:38.810Z,2.97
2023-02-22T11:16:21.010Z,2.50
2023-02-22T11:18:48.734Z,2.63
2023-02-22T11:21:22.712Z,2.53
2023-02-22T11:23:50.405Z,2.00
2023-02-22T11:26:20.411Z,2.60
2023-02-22T11:28:56.126Z,2.00
2023-02-22T11:31:27.284Z,2.10
2023-02-22T11:33:59.305Z,1.63
2023-02-22T11:36:43.064Z,2.22
2023-02-22T11:39:24.347Z,2.40
2023-02-22T11:41:51.134Z,1.60
2023-02-22T11:44:31.989Z,2.35
2023-02-22T11:47:06.753Z,2.20
2023-02-22T11:49:39.155Z,1.70
2023-02-22T11:52:35.387Z,2.08
2023-02-22T11:55:32.758Z,2.30
2023-02-22T11:58:23.930Z,1.60
2023-02-22T12:01:07.096Z,1.52
2023-02-22T12:04:03.674Z,1.45
2023-02-22T12:06:48.681Z,1.80
2023-02-22T12:09:23.263Z,1.75
2023-02-22T12:11:57.318Z,1.88
2023-02-22T12:14:58.629Z,1.83
2023-02-22T12:17:43.606Z,1.77
2023-02-22T12:20:23.210Z,1.70
2023-02-22T12:23:23.591Z,3.55
2023-02-22T12:25:58.901Z,1.33
2023-02-22T12:28:37.539Z,1.40
2023-02-22T12:31:18.314Z,1.77
2023-02-22T12:33:51.858Z,1.92
2023-02-22T12:36:24.917Z,1.42
2023-02-22T12:38:59.659Z,1.70
2023-02-22T12:41:52.839Z,1.60
2023-02-22T12:44:29.319Z,1.90
2023-02-22T12:46:58.337Z,2.15
2023-02-22T12:49:52.022Z,1.50
2023-02-22T12:52:25.861Z,1.88
2023-02-22T12:55:04.124Z,2.30
2023-02-22T12:57:30.752Z,1.95
2023-02-22T13:00:23.125Z,1.52
2023-02-22T13:03:04.082Z,3.30
2023-02-22T13:05:36.128Z,3.15
2023-02-22T13:08:11.669Z,2.53
2023-02-22T13:11:11.353Z,1.90
2023-02-22T13:13:40.536Z,2.40
2023-02-22T13:16:31.915Z,2.50
2023-02-22T13:19:22.981Z,2.00
2023-02-22T13:22:14.084Z,1.77
2023-02-22T13:24:53.238Z,1.80
2023-02-22T13:27:26.288Z,1.75
2023-02-22T13:29:58.972Z,1.77
2023-02-22T13:33:01.107Z,1.90
2023-02-22T13:35:47.363Z,1.98
2023-02-22T13:38:47.765Z,1.73
2023-02-22T13:41:23.614Z,1.90
2023-02-22T13:44:08.682Z,1.63
2023-02-22T13:47:16.981Z,1.50
2023-02-22T13:50:02.320Z,2.03
2023-02-22T13:52:31.800Z,1.75
2023-02-22T13:55:10.814Z,2.10
2023-02-22T13:57:50.786Z,2.03
2023-02-22T14:00:26.299Z,2.03
2023-02-22T14:03:17.970Z,1.80
2023-02-22T14:05:50.744Z,1.35
2023-02-22T14:08:17.471Z,1.30
2023-02-22T14:10:46.286Z,1.65
2023-02-22T14:13:14.516Z,1.50
2023-02-22T14:16:02.376Z,1.75
2023-02-22T14:18:37.674Z,1.40
2023-02-22T14:21:15.775Z,1.55
2023-02-22T14:24:05.625Z,1.38
2023-02-22T14:26:37.093Z,1.48
2023-02-22T14:29:03.622Z,1.60
2023-02-22T14:31:57.188Z,1.38
2023-02-22T14:34:41.393Z,2.03
2023-02-22T14:37:40.174Z,1.73
2023-02-22T14:40:29.494Z,1.83
2023-02-22T14:43:09.999Z,1.75
2023-02-22T14:45:53.509Z,1.83
2023-02-22T14:48:45.380Z,1.40
2023-02-22T14:51:50.407Z,1.70
2023-02-22T14:54:39.675Z,1.55
2023-02-22T14:57:19.231Z,1.58
2023-02-22T14:59:58.881Z,1.50
2023-02-22T15:02:26.112Z,1.70
2023-02-22T15:04:54.746Z,1.65
2023-02-22T15:07:28.798Z,1.50
2023-02-22T15:10:26.640Z,1.30
2023-02-22T15:13:09.800Z,2.00
2023-02-22T15:15:49.552Z,1.65
2023-02-22T15:18:27.160Z,1.40
2023-02-22T15:20:58.121Z,1.70
2023-02-22T15:23:30.328Z,1.80
2023-02-22T15:25:58.035Z,1.42
2023-02-22T15:28:28.768Z,1.70
2023-02-22T15:31:31.253Z,1.65
2023-02-22T15:34:08.973Z,1.75
2023-02-22T15:36:35.664Z,1.50
2023-02-22T15:39:07.893Z,1.40
2023-02-22T15:41:35.261Z,2.50
2023-02-22T15:44:22.830Z,2.25
2023-02-22T15:46:50.794Z,2.05
2023-02-22T15:49:20.497Z,1.45
2023-02-22T15:52:08.387Z,1.80
2023-02-22T15:54:42.144Z,1.70
2023-02-22T15:57:09.379Z,2.00
2023-02-22T15:59:45.527Z,1.52
2023-02-22T16:02:31.437Z,1.58
2023-02-22T16:05:13.384Z,1.92
2023-02-22T16:07:47.523Z,2.40
2023-02-22T16:10:27.153Z,1.48
2023-02-22T16:13:31.628Z,2.17
2023-02-22T16:16:02.932Z,1.92
2023-02-22T16:18:38.493Z,2.13
2023-02-22T16:21:06.947Z,2.00
2023-02-22T16:23:50.687Z,1.70
2023-02-22T16:26:27.876Z,2.00
2023-02-22T16:28:54.524Z,1.90
2023-02-22T16:31:25.160Z,1.52
2023-02-22T16:33:53.976Z,2.13
2023-02-22T16:36:24.362Z,2.00
2023-02-22T16:38:51.750Z,1.50
2023-02-22T16:41:19.916Z,1.23
2023-02-22T16:43:51.198Z,1.45
2023-02-22T16:46:19.767Z,1.27
2023-02-22T16:48:46.762Z,1.58
2023-02-22T16:51:16.634Z,1.50
2023-02-22T16:53:44.580Z,1.50
2023-02-22T16:56:16.123Z,1.30
2023-02-22T16:58:44.164Z,1.48
2023-02-22T17:01:12.624Z,1.45
2023-02-22T17:03:39.639Z,1.20
2023-02-22T17:06:06.525Z,1.40
2023-02-22T17:08:33.107Z,1.60
2023-02-22T17:11:00.680Z,1.60
2023-02-22T17:13:29.194Z,1.52
2023-02-22T17:15:56.901Z,1.15
2023-02-22T17:18:28.302Z,1.42
2023-02-22T17:20:55.184Z,1.45
2023-02-22T17:23:23.107Z,1.75
2023-02-22T17:26:02.257Z,1.48
2023-02-22T17:28:30.449Z,1.48
2023-02-22T17:31:02.451Z,1.48
2023-02-22T17:33:32.832Z,1.48
2023-02-22T17:36:02.055Z,1.85
2023-02-22T17:38:30.239Z,1.52
2023-02-22T17:40:59.018Z,1.98
2023-02-22T17:43:27.804Z,2.00
2023-02-22T17:45:55.059Z,2.65
2023-02-22T17:48:24.023Z,2.80
2023-02-22T17:50:51.863Z,2.40
2023-02-22T17:53:21.737Z,2.28
2023-02-22T17:55:48.826Z,2.08
2023-02-22T17:58:15.700Z,2.30
2023-02-22T18:00:48.464Z,2.38
2023-02-22T18:03:21.501Z,2.00
2023-02-22T18:05:49.770Z,2.13
2023-02-22T18:08:16.396Z,3.55
2023-02-22T18:10:43.865Z,4.78
2023-02-22T18:13:16.601Z,5.93
2023-02-22T18:15:43.607Z,8.30
2023-02-22T18:18:10.304Z,6.63
2023-02-22T18:20:39.952Z,7.82
2023-02-22T18:23:08.136Z,6.18
2023-02-22T18:25:36.645Z,3.90
2023-02-22T18:28:06.063Z,3.55
2023-02-22T18:30:35.726Z,3.30
2023-02-22T18:33:03.619Z,2.88
2023-02-22T18:35:31.142Z,2.10
2023-02-22T18:37:57.829Z,2.38
2023-02-22T18:40:24.388Z,2.55
2023-02-22T18:42:50.957Z,2.15
2023-02-22T18:45:18.059Z,1.85
2023-02-22T18:47:45.544Z,2.22
2023-02-22T18:50:13.316Z,2.17
2023-02-22T18:52:46.310Z,2.25
2023-02-22T18:55:14.272Z,2.33
2023-02-22T18:57:41.333Z,2.00
2023-02-22T19:00:10.325Z,1.98
2023-02-22T19:02:37.105Z,1.83
2023-02-22T19:05:06.106Z,2.20
2023-02-22T19:07:32.803Z,2.08
2023-02-22T19:09:59.630Z,1.90
2023-02-22T19:12:27.006Z,2.17
2023-02-22T19:14:53.608Z,2.88
2023-02-22T19:17:21.490Z,2.10
2023-02-22T19:19:48.571Z,2.30
2023-02-22T19:22:15.348Z,2.60
2023-02-22T19:24:43.495Z,2.83
2023-02-22T19:27:11.198Z,2.75
2023-02-22T19:29:38.925Z,3.17
2023-02-22T19:32:07.156Z,2.80
2023-02-22T19:34:34.003Z,2.88
2023-02-22T19:37:00.974Z,3.30
2023-02-22T19:39:29.234Z,3.00
2023-02-22T19:41:57.008Z,2.63
2023-02-22T19:44:24.432Z,2.83
2023-02-22T19:46:51.633Z,2.28
2023-02-22T19:49:18.232Z,1.90
2023-02-22T19:51:44.885Z,2.40
2023-02-22T19:54:19.421Z,2.40
2023-02-22T19:56:50.755Z,2.22
2023-02-22T19:59:22.608Z,2.85
2023-02-22T20:01:52.530Z,2.38
2023-02-22T20:04:21.409Z,2.57
2023-02-22T20:06:59.369Z,2.80
2023-02-22T20:09:33.329Z,2.50
2023-02-22T20:11:59.996Z,2.90
2023-02-22T20:14:28.428Z,2.70
2023-02-22T20:16:56.697Z,2.85
2023-02-22T20:19:24.328Z,2.78
2023-02-22T20:21:52.314Z,3.25
2023-02-22T20:24:19.150Z,3.15
2023-02-22T20:26:46.888Z,3.28
2023-02-22T20:29:14.266Z,3.13
2023-02-22T20:31:42.173Z,3.95
2023-02-22T20:34:10.106Z,3.38
2023-02-22T20:36:41.422Z,3.08
2023-02-22T20:39:13.373Z,2.90
2023-02-22T20:41:46.110Z,3.90
2023-02-22T20:44:15.265Z,3.88
2023-02-22T20:46:42.867Z,4.00
2023-02-22T20:49:12.485Z,3.92
2023-02-22T20:51:40.415Z,3.50
2023-02-22T20:54:08.497Z,3.27
2023-02-22T20:56:35.246Z,3.78
2023-02-22T20:59:03.638Z,3.88
2023-02-22T21:01:31.521Z,3.13
2023-02-22T21:04:02.489Z,3.90
2023-02-22T21:06:30.850Z,3.53
2023-02-22T21:08:59.794Z,3.25
2023-02-22T21:11:30.370Z,3.58
2023-02-22T21:13:57.680Z,4.25
2023-02-22T21:16:26.962Z,3.95
2023-02-22T21:18:58.564Z,3.80
2023-02-22T21:21:26.616Z,3.60
2023-02-22T21:23:55.197Z,4.05
2023-02-22T21:26:24.525Z,4.22
2023-02-22T21:28:52.292Z,3.90
2023-02-22T21:31:21.596Z,4.47
2023-02-22T21:33:53.880Z,4.47
2023-02-22T21:36:25.029Z,4.20
2023-02-22T21:38:57.527Z,3.80
2023-02-22T21:41:27.693Z,3.75
2023-02-22T21:43:56.024Z,4.27
2023-02-22T21:46:24.117Z,5.30
2023-02-22T21:48:50.948Z,4.85
2023-02-22T21:51:31.460Z,4.18
2023-02-22T21:54:04.272Z,4.20
2023-02-22T21:56:35.642Z,4.72
2023-02-22T21:59:11.553Z,5.05
2023-02-22T22:01:47.521Z,5.10
2023-02-22T22:04:18.847Z,4.45
2023-02-22T22:06:53.561Z,5.00
2023-02-22T22:09:23.316Z,5.50
2023-02-22T22:11:58.328Z,5.68
2023-02-22T22:14:26.100Z,5.75
2023-02-22T22:16:58.073Z,5.22
2023-02-22T22:19:25.898Z,5.50
2023-02-22T22:21:53.304Z,5.53
2023-02-22T22:24:21.337Z,5.68
2023-02-22T22:26:51.042Z,6.15
2023-02-22T22:29:18.611Z,5.63
2023-02-22T22:31:45.870Z,5.97
2023-02-22T22:34:12.730Z,5.20
2023-02-22T22:36:39.373Z,5.93
2023-02-22T22:39:14.701Z,5.90
2023-02-22T22:41:42.547Z,6.45
2023-02-22T22:44:09.852Z,6.22
2023-02-22T22:46:41.190Z,6.15
2023-02-22T22:49:10.143Z,6.65
2023-02-22T22:51:37.598Z,6.82
2023-02-22T22:54:05.778Z,6.95
2023-02-22T22:56:35.182Z,5.75
2023-02-22T22:59:07.364Z,6.30
2023-02-22T23:01:39.242Z,6.28
2023-02-22T23:04:16.141Z,6.57
2023-02-22T23:06:45.895Z,6.55
2023-02-22T23:09:27.230Z,6.80
2023-02-22T23:11:56.195Z,7.30
2023-02-22T23:14:25.132Z,7.20
2023-02-22T23:16:56.434Z,7.35
2023-02-22T23:19:23.042Z,7.10
2023-02-22T23:21:50.380Z,7.22
2023-02-22T23:24:19.309Z,7.40
2023-02-22T23:26:49.080Z,6.88
2023-02-22T23:29:21.313Z,7.93
2023-02-22T23:31:49.363Z,8.15
2023-02-22T23:34:18.168Z,8.13
2023-02-22T23:36:44.817Z,7.40
2023-02-22T23:39:14.113Z,7.78
2023-02-22T23:41:42.404Z,7.57
2023-02-22T23:44:17.234Z,7.70
2023-02-22T23:46:47.908Z,7.90
2023-02-22T23:49:19.984Z,7.87
2023-02-22T23:51:47.579Z,7.82
2023-02-22T23:54:19.111Z,8.20
2023-02-22T23:56:53.579Z,7.05
2023-02-22T23:59:20.198Z,7.70
